createdAt,value
2023-04-19T00:01:51.744Z,79.93
2023-04-19T00:04:19.182Z,79.69
2023-04-19T00:06:47.281Z,80.02
2023-04-19T00:09:13.927Z,80.44
2023-04-19T00:11:41.056Z,80.43
2023-04-19T00:14:07.752Z,80.46
2023-04-19T00:16:34.527Z,80.31
2023-04-19T00:19:01.801Z,80.33
2023-04-19T00:21:28.459Z,80.47
2023-04-19T00:23:55.112Z,80.41
2023-04-19T00:26:22.308Z,80.59
2023-04-19T00:28:51.933Z,80.75
2023-04-19T00:31:18.504Z,80.67
2023-04-19T00:33:45.213Z,80.91
2023-04-19T00:36:11.838Z,80.81
2023-04-19T00:38:38.852Z,81.40
2023-04-19T00:41:05.482Z,81.73
2023-04-19T00:43:32.210Z,81.99
2023-04-19T00:46:00.645Z,82.29
2023-04-19T00:48:27.454Z,82.36
2023-04-19T00:50:54.110Z,82.84
2023-04-19T00:53:20.642Z,82.81
2023-04-19T00:55:47.701Z,83.16
2023-04-19T00:58:14.465Z,83.37
2023-04-19T01:00:41.788Z,83.84
2023-04-19T01:03:09.142Z,83.94
2023-04-19T01:05:35.915Z,84.37
2023-04-19T01:08:03.276Z,84.55
2023-04-19T01:10:30.352Z,84.50
2023-04-19T01:12:56.954Z,84.44
2023-04-19T01:15:23.721Z,84.47
2023-04-19T01:17:50.304Z,85.18
2023-04-19T01:20:17.033Z,85.68
2023-04-19T01:22:47.082Z,85.69
2023-04-19T01:25:13.672Z,86.51
2023-04-19T01:27:42.903Z,86.53
2023-04-19T01:30:09.681Z,86.48
2023-04-19T01:32:36.354Z,87.21
2023-04-19T01:35:03.004Z,87.40
2023-04-19T01:37:30.463Z,87.22
2023-04-19T01:39:57.075Z,87.40
2023-04-19T01:42:23.634Z,87.54
2023-04-19T01:44:50.346Z,87.54
2023-04-19T01:47:17.017Z,87.25
2023-04-19T01:49:43.597Z,87.30
2023-04-19T01:52:10.208Z,86.98
2023-04-19T01:54:36.774Z,86.91
2023-04-19T01:57:03.638Z,86.90
2023-04-19T01:59:30.781Z,86.68
2023-04-19T02:01:57.539Z,86.57
2023-04-19T02:04:24.718Z,87.19
2023-04-19T02:06:51.356Z,87.28
2023-04-19T02:09:17.909Z,87.71
2023-04-19T02:11:46.092Z,87.09
2023-04-19T02:14:12.702Z,86.79
2023-04-19T02:16:39.401Z,86.28
2023-04-19T02:19:06.671Z,86.42
2023-04-19T02:21:33.302Z,86.25
2023-04-19T02:23:59.896Z,86.14
2023-04-19T02:26:26.828Z,86.14
2023-04-19T02:28:53.659Z,86.16
2023-04-19T02:31:20.407Z,86.35
2023-04-19T02:33:47.077Z,86.04
2023-04-19T02:36:13.741Z,85.92
2023-04-19T02:38:40.306Z,85.75
2023-04-19T02:41:07.234Z,85.55
2023-04-19T02:43:33.800Z,86.03
2023-04-19T02:46:00.429Z,86.19
2023-04-19T02:48:27.089Z,86.50
2023-04-19T02:50:53.896Z,86.57
2023-04-19T02:53:20.894Z,86.48
2023-04-19T02:55:48.798Z,86.33
2023-04-19T02:58:18.820Z,86.62
2023-04-19T03:00:59.130Z,86.61
2023-04-19T03:03:25.840Z,86.90
2023-04-19T03:05:52.979Z,87.30
2023-04-19T03:08:19.968Z,87.46
2023-04-19T03:10:46.569Z,87.41
2023-04-19T03:13:13.369Z,87.54
2023-04-19T03:15:40.061Z,88.44
2023-04-19T03:18:07.247Z,89.34
2023-04-19T03:20:35.886Z,90.21
2023-04-19T03:23:02.488Z,91.21
2023-04-19T03:25:29.915Z,92.16
2023-04-19T03:28:08.938Z,92.85
2023-04-19T03:30:58.122Z,94.33
2023-04-19T03:33:24.923Z,95.78
2023-04-19T03:35:53.347Z,97.10
2023-04-19T03:38:19.869Z,97.87
2023-04-19T03:40:47.967Z,98.41
2023-04-19T03:43:16.313Z,99.02
2023-04-19T03:45:43.803Z,100.00
2023-04-19T03:48:11.277Z,100.00
2023-04-19T03:50:37.949Z,100.00
2023-04-19T03:53:05.796Z,100.00
2023-04-19T03:55:32.782Z,100.00
2023-04-19T03:58:00.817Z,100.00
2023-04-19T04:00:40.823Z,100.00
2023-04-19T04:03:07.711Z,100.00
2023-04-19T04:05:34.854Z,100.00
2023-04-19T04:08:01.607Z,100.00
2023-04-19T04:10:28.217Z,100.00
2023-04-19T04:12:54.792Z,100.00
2023-04-19T04:15:28.275Z,100.00
2023-04-19T04:17:56.199Z,100.00
2023-04-19T04:20:22.815Z,100.00
2023-04-19T04:22:53.346Z,100.00
2023-04-19T04:25:22.979Z,100.00
2023-04-19T04:27:51.679Z,100.00
2023-04-19T04:30:20.138Z,100.00
2023-04-19T04:32:47.537Z,100.00
2023-04-19T04:35:14.723Z,100.00
2023-04-19T04:37:49.459Z,100.00
2023-04-19T04:40:16.441Z,100.00
2023-04-19T04:42:43.031Z,100.00
2023-04-19T04:45:12.364Z,99.96
2023-04-19T04:47:41.978Z,99.88
2023-04-19T04:50:10.913Z,99.63
2023-04-19T04:52:37.516Z,99.19
2023-04-19T04:55:24.484Z,100.00
2023-04-19T04:57:51.240Z,100.00
2023-04-19T05:00:25.535Z,100.00
2023-04-19T05:02:58.803Z,100.00
2023-04-19T05:05:25.840Z,100.00
2023-04-19T05:07:52.400Z,100.00
2023-04-19T05:10:19.398Z,100.00
2023-04-19T05:12:47.450Z,100.00
2023-04-19T05:15:15.106Z,100.00
2023-04-19T05:17:47.885Z,100.00
2023-04-19T05:20:14.662Z,100.00
2023-04-19T05:22:42.516Z,100.00
2023-04-19T05:25:12.773Z,100.00
2023-04-19T05:27:39.787Z,100.00
2023-04-19T05:30:06.962Z,100.00
2023-04-19T05:32:35.774Z,100.00
2023-04-19T05:35:04.559Z,100.00
2023-04-19T05:37:31.241Z,100.00
2023-04-19T05:39:58.489Z,100.00
2023-04-19T05:42:25.312Z,100.00
2023-04-19T05:44:52.006Z,100.00
2023-04-19T05:47:18.931Z,100.00
2023-04-19T05:50:11.714Z,100.00
2023-04-19T05:52:46.780Z,100.00
2023-04-19T05:55:14.159Z,100.00
2023-04-19T05:57:44.044Z,100.00
2023-04-19T06:00:10.961Z,100.00
2023-04-19T06:02:40.267Z,100.00
2023-04-19T06:05:11.180Z,100.00
2023-04-19T06:07:43.351Z,100.00
2023-04-19T06:10:14.262Z,100.00
2023-04-19T06:12:40.832Z,100.00
2023-04-19T06:15:07.618Z,100.00
2023-04-19T06:17:34.282Z,100.00
2023-04-19T06:20:01.081Z,100.00
2023-04-19T06:22:27.621Z,100.00
2023-04-19T06:24:54.131Z,100.00
2023-04-19T06:27:20.824Z,100.00
2023-04-19T06:29:48.105Z,100.00
2023-04-19T06:32:15.991Z,100.00
2023-04-19T06:34:42.567Z,100.00
2023-04-19T06:37:09.118Z,100.00
2023-04-19T06:39:35.689Z,100.00
2023-04-19T06:42:02.487Z,100.00
2023-04-19T06:44:29.458Z,100.00
2023-04-19T06:46:55.989Z,100.00
2023-04-19T06:49:22.790Z,100.00
2023-04-19T06:51:49.708Z,100.00
2023-04-19T06:54:16.530Z,100.00
2023-04-19T06:56:47.735Z,100.00
2023-04-19T06:59:16.574Z,100.00
2023-04-19T07:01:43.578Z,100.00
2023-04-19T07:04:10.461Z,100.00
2023-04-19T07:06:37.765Z,100.00
2023-04-19T07:09:05.961Z,100.00
2023-04-19T07:11:32.986Z,100.00
2023-04-19T07:14:02.193Z,100.00
2023-04-19T07:16:28.953Z,100.00
2023-04-19T07:18:55.959Z,100.00
2023-04-19T07:21:22.748Z,100.00
2023-04-19T07:23:49.441Z,100.00
2023-04-19T07:26:16.038Z,100.00
2023-04-19T07:28:42.568Z,100.00
2023-04-19T07:31:14.489Z,100.00
2023-04-19T07:33:41.239Z,100.00
2023-04-19T07:36:07.934Z,100.00
2023-04-19T07:38:34.695Z,100.00
2023-04-19T07:41:01.413Z,100.00
2023-04-19T07:43:29.710Z,100.00
2023-04-19T07:45:56.347Z,100.00
2023-04-19T07:48:22.925Z,100.00
2023-04-19T07:50:49.518Z,100.00
2023-04-19T07:53:16.681Z,100.00
2023-04-19T07:55:43.213Z,100.00
2023-04-19T07:58:09.963Z,100.00
2023-04-19T08:00:37.944Z,100.00
2023-04-19T08:03:04.863Z,100.00
2023-04-19T08:05:31.964Z,100.00
2023-04-19T08:07:58.622Z,100.00
2023-04-19T08:10:26.883Z,100.00
2023-04-19T08:13:05.277Z,100.00
2023-04-19T08:18:05.667Z,100.00
2023-04-19T08:20:32.827Z,100.00
2023-04-19T08:23:04.639Z,100.00
2023-04-19T08:25:37.458Z,100.00
2023-04-19T08:28:04.421Z,100.00
2023-04-19T08:30:31.088Z,100.00
2023-04-19T08:32:57.733Z,100.00
2023-04-19T08:35:25.329Z,100.00
2023-04-19T08:37:51.960Z,100.00
2023-04-19T08:40:18.669Z,100.00
2023-04-19T08:42:45.342Z,100.00
2023-04-19T08:45:26.108Z,100.00
2023-04-19T08:48:00.598Z,100.00
2023-04-19T08:50:34.584Z,100.00
2023-04-19T08:53:20.799Z,100.00
2023-04-19T08:56:08.656Z,100.00
2023-04-19T08:58:54.909Z,100.00
2023-04-19T09:01:35.417Z,100.00
2023-04-19T09:04:25.962Z,100.00
2023-04-19T09:06:52.644Z,100.00
2023-04-19T09:11:52.632Z,100.00
2023-04-19T09:14:20.140Z,100.00
2023-04-19T09:16:46.822Z,100.00
2023-04-19T09:19:23.219Z,100.00
2023-04-19T09:21:53.039Z,100.00
2023-04-19T09:24:19.721Z,99.45
2023-04-19T09:26:55.877Z,98.03
2023-04-19T09:29:22.455Z,94.79
2023-04-19T09:32:00.598Z,92.54
2023-04-19T09:34:29.723Z,92.09
2023-04-19T09:37:04.767Z,92.45
2023-04-19T09:39:38.502Z,92.35
2023-04-19T09:42:05.313Z,93.01
2023-04-19T09:45:12.487Z,93.04
2023-04-19T09:47:24.526Z,92.33
2023-04-19T09:50:21.856Z,91.24
2023-04-19T09:52:50.179Z,88.57
2023-04-19T09:55:26.954Z,88.29
2023-04-19T09:57:55.416Z,87.74
2023-04-19T10:00:22.839Z,87.66
2023-04-19T10:02:54.675Z,90.31
2023-04-19T10:05:23.075Z,90.61
2023-04-19T10:07:50.420Z,88.25
2023-04-19T10:10:20.830Z,86.01
2023-04-19T10:15:23.254Z,82.97
2023-04-19T10:17:49.878Z,82.71
2023-04-19T10:20:20.644Z,81.74
2023-04-19T10:22:47.581Z,81.84
2023-04-19T10:25:18.024Z,84.70
2023-04-19T10:27:46.730Z,82.97
2023-04-19T10:30:18.061Z,85.85
2023-04-19T10:32:46.030Z,84.66
2023-04-19T10:35:18.485Z,80.27
2023-04-19T10:38:03.874Z,77.23
2023-04-19T10:40:49.082Z,78.98
2023-04-19T10:43:17.794Z,79.93
2023-04-19T10:45:45.374Z,79.80
2023-04-19T10:48:27.602Z,78.97
2023-04-19T10:51:00.024Z,81.02
2023-04-19T10:53:45.444Z,78.14
2023-04-19T10:56:12.076Z,76.25
2023-04-19T10:58:57.436Z,73.89
2023-04-19T11:01:45.660Z,75.10
2023-04-19T11:04:12.534Z,76.26
2023-04-19T11:06:57.262Z,72.70
2023-04-19T11:09:26.454Z,72.89
2023-04-19T11:11:53.995Z,72.81
2023-04-19T11:14:21.236Z,73.12
2023-04-19T11:16:47.844Z,75.67
2023-04-19T11:19:18.293Z,75.71
2023-04-19T11:21:45.896Z,76.03
2023-04-19T11:24:12.634Z,76.74
2023-04-19T11:26:39.504Z,78.88
2023-04-19T11:29:09.016Z,76.83
2023-04-19T11:31:36.202Z,77.38
2023-04-19T11:34:03.475Z,76.58
2023-04-19T11:36:32.085Z,75.19
2023-04-19T11:38:58.797Z,71.03
2023-04-19T11:41:25.369Z,71.02
2023-04-19T11:43:51.997Z,70.53
2023-04-19T11:46:18.644Z,72.97
2023-04-19T11:48:54.797Z,71.78
2023-04-19T11:51:21.664Z,69.19
2023-04-19T11:53:48.341Z,71.35
2023-04-19T11:56:16.365Z,68.92
2023-04-19T11:58:45.381Z,65.94
2023-04-19T12:01:15.884Z,68.13
2023-04-19T12:03:45.762Z,65.90
2023-04-19T12:06:13.860Z,66.07
2023-04-19T12:08:44.409Z,63.32
2023-04-19T12:11:11.094Z,65.25
2023-04-19T12:13:38.227Z,63.10
2023-04-19T12:16:04.998Z,63.61
2023-04-19T12:18:50.917Z,64.51
2023-04-19T12:21:27.237Z,62.15
2023-04-19T12:23:54.830Z,63.29
2023-04-19T12:26:21.581Z,66.33
2023-04-19T12:28:48.137Z,67.11
2023-04-19T12:31:15.037Z,67.29
2023-04-19T12:33:41.570Z,65.06
2023-04-19T12:36:08.403Z,65.35
2023-04-19T12:38:35.007Z,63.80
2023-04-19T12:41:01.756Z,62.43
2023-04-19T12:43:30.137Z,63.96
2023-04-19T12:45:56.988Z,63.83
2023-04-19T12:48:23.681Z,63.77
2023-04-19T12:50:50.411Z,63.61
2023-04-19T12:53:17.032Z,64.24
2023-04-19T12:55:47.754Z,64.33
2023-04-19T12:58:15.056Z,64.43
2023-04-19T13:00:41.975Z,63.69
2023-04-19T13:03:08.826Z,62.53
2023-04-19T13:05:35.637Z,63.25
2023-04-19T13:08:02.238Z,62.74
2023-04-19T13:10:28.803Z,63.59
2023-04-19T13:12:56.318Z,63.58
2023-04-19T13:15:22.976Z,64.61
2023-04-19T13:17:49.585Z,64.06
2023-04-19T13:20:16.243Z,63.45
2023-04-19T13:22:42.859Z,63.74
2023-04-19T13:25:09.486Z,63.16
2023-04-19T13:27:36.062Z,64.19
2023-04-19T13:30:02.842Z,64.47
2023-04-19T13:32:29.580Z,63.85
2023-04-19T13:34:56.141Z,65.02
2023-04-19T13:37:22.704Z,64.84
2023-04-19T13:39:49.285Z,65.42
2023-04-19T13:42:15.891Z,63.50
2023-04-19T13:44:42.633Z,62.67
2023-04-19T13:47:09.257Z,62.21
2023-04-19T13:49:36.148Z,62.71
2023-04-19T13:52:02.758Z,61.79
2023-04-19T13:54:29.294Z,61.45
2023-04-19T13:56:56.377Z,61.15
2023-04-19T13:59:25.981Z,62.31
2023-04-19T14:01:55.009Z,60.88
2023-04-19T14:04:22.445Z,61.91
2023-04-19T14:06:49.426Z,61.37
2023-04-19T14:09:16.183Z,60.58
2023-04-19T14:11:43.118Z,60.18
2023-04-19T14:14:09.663Z,60.31
2023-04-19T14:16:36.448Z,60.88
2023-04-19T14:19:03.040Z,59.46
2023-04-19T14:21:30.522Z,59.05
2023-04-19T14:23:57.127Z,59.17
2023-04-19T14:26:24.960Z,59.21
2023-04-19T14:28:52.507Z,58.78
2023-04-19T14:31:19.127Z,58.63
2023-04-19T14:33:45.698Z,60.71
2023-04-19T14:36:12.285Z,60.14
2023-04-19T14:38:38.845Z,61.58
2023-04-19T14:41:05.575Z,61.00
2023-04-19T14:43:33.009Z,59.28
2023-04-19T14:45:59.659Z,59.10
2023-04-19T14:48:26.370Z,60.15
2023-04-19T14:50:53.113Z,61.27
2023-04-19T14:53:19.712Z,59.91
2023-04-19T14:55:46.349Z,60.52
2023-04-19T14:58:12.948Z,58.95
2023-04-19T15:00:39.510Z,60.35
2023-04-19T15:03:06.205Z,60.19
2023-04-19T15:05:34.708Z,59.81
2023-04-19T15:08:01.350Z,59.85
2023-04-19T15:10:27.973Z,59.81
2023-04-19T15:12:54.910Z,60.02
2023-04-19T15:15:21.558Z,60.58
2023-04-19T15:17:48.122Z,59.34
2023-04-19T15:20:14.702Z,59.61
2023-04-19T15:22:41.360Z,59.28
2023-04-19T15:25:08.079Z,60.42
2023-04-19T15:27:34.725Z,61.40
2023-04-19T15:30:01.274Z,60.54
2023-04-19T15:32:30.531Z,60.75
2023-04-19T15:34:57.252Z,61.08
2023-04-19T15:37:23.800Z,61.95
2023-04-19T15:39:50.362Z,61.89
2023-04-19T15:42:17.158Z,63.40
2023-04-19T15:44:44.278Z,62.69
2023-04-19T15:47:10.986Z,63.40
2023-04-19T15:49:37.645Z,63.74
2023-04-19T15:52:04.284Z,65.68
2023-04-19T15:54:30.934Z,64.38
2023-04-19T15:56:57.524Z,64.01
2023-04-19T15:59:24.185Z,65.15
2023-04-19T16:01:50.817Z,63.08
2023-04-19T16:04:17.869Z,64.40
2023-04-19T16:06:44.704Z,62.74
2023-04-19T16:09:11.464Z,63.24
2023-04-19T16:11:39.206Z,62.49
2023-04-19T16:14:05.977Z,61.95
2023-04-19T16:16:34.430Z,61.93
2023-04-19T16:19:01.280Z,62.21
2023-04-19T16:21:28.758Z,62.53
2023-04-19T16:23:56.112Z,62.37
2023-04-19T16:26:23.041Z,62.78
2023-04-19T16:28:49.553Z,62.53
2023-04-19T16:31:16.098Z,64.22
2023-04-19T16:33:42.632Z,63.85
2023-04-19T16:36:09.290Z,63.41
2023-04-19T16:38:35.828Z,63.37
2023-04-19T16:41:04.677Z,64.62
2023-04-19T16:43:31.357Z,63.65
2023-04-19T16:45:58.025Z,64.35
2023-04-19T16:48:24.677Z,64.27
2023-04-19T16:50:51.964Z,65.19
2023-04-19T16:53:18.608Z,64.93
2023-04-19T16:55:45.707Z,65.22
2023-04-19T16:58:12.629Z,65.62
2023-04-19T17:00:39.280Z,66.09
2023-04-19T17:03:06.066Z,66.42
2023-04-19T17:05:32.692Z,66.28
2023-04-19T17:07:59.372Z,66.79
2023-04-19T17:10:26.404Z,67.09
2023-04-19T17:12:55.360Z,66.89
2023-04-19T17:15:21.909Z,66.69
2023-04-19T17:17:48.496Z,67.19
2023-04-19T17:20:15.494Z,68.10
2023-04-19T17:22:42.352Z,68.50
2023-04-19T17:25:08.996Z,68.52
2023-04-19T17:27:35.678Z,68.58
2023-04-19T17:30:02.399Z,68.68
2023-04-19T17:32:29.111Z,68.83
2023-04-19T17:34:55.795Z,69.01
2023-04-19T17:37:22.365Z,69.49
2023-04-19T17:39:49.113Z,69.29
2023-04-19T17:42:15.690Z,69.67
2023-04-19T17:44:42.268Z,71.04
2023-04-19T17:47:08.876Z,71.97
2023-04-19T17:49:35.469Z,71.72
2023-04-19T17:52:02.128Z,71.56
2023-04-19T17:54:28.691Z,71.68
2023-04-19T17:56:55.246Z,73.11
2023-04-19T17:59:22.403Z,73.14
2023-04-19T18:01:49.045Z,73.25
2023-04-19T18:04:17.968Z,73.16
2023-04-19T18:06:45.116Z,72.80
2023-04-19T18:09:13.243Z,72.91
2023-04-19T18:11:40.065Z,73.54
2023-04-19T18:14:06.673Z,73.26
2023-04-19T18:16:33.486Z,73.64
2023-04-19T18:19:00.070Z,73.94
2023-04-19T18:21:27.200Z,74.15
2023-04-19T18:23:54.789Z,73.47
2023-04-19T18:26:24.122Z,73.41
2023-04-19T18:28:50.869Z,72.75
2023-04-19T18:31:17.516Z,72.43
2023-04-19T18:33:44.045Z,72.15
2023-04-19T18:36:11.125Z,71.27
2023-04-19T18:38:37.811Z,71.38
2023-04-19T18:41:04.484Z,71.29
2023-04-19T18:43:31.630Z,71.24
2023-04-19T18:45:59.216Z,71.10
2023-04-19T18:48:28.092Z,70.76
2023-04-19T18:50:55.141Z,71.74
2023-04-19T18:53:21.659Z,72.12
2023-04-19T18:55:48.618Z,72.54
2023-04-19T18:58:15.152Z,73.33
2023-04-19T19:00:41.789Z,73.30
2023-04-19T19:03:21.453Z,73.59
2023-04-19T19:05:55.692Z,73.84
2023-04-19T19:08:22.525Z,73.76
2023-04-19T19:11:16.263Z,73.72
2023-04-19T19:13:36.049Z,73.46
2023-04-19T19:16:02.698Z,72.94
2023-04-19T19:18:29.555Z,73.07
2023-04-19T19:21:00.312Z,73.23
2023-04-19T19:25:58.135Z,75.05
2023-04-19T19:28:24.746Z,75.89
2023-04-19T19:30:51.437Z,76.03
2023-04-19T19:33:18.033Z,76.66
2023-04-19T19:35:44.721Z,76.50
2023-04-19T19:38:11.500Z,76.02
2023-04-19T19:40:53.531Z,75.49
2023-04-19T19:43:24.949Z,75.72
2023-04-19T19:45:51.490Z,76.15
2023-04-19T19:48:18.116Z,76.38
2023-04-19T19:53:14.169Z,77.24
2023-04-19T19:55:40.785Z,77.67
2023-04-19T19:58:23.689Z,78.56
2023-04-19T20:00:52.958Z,79.14
2023-04-19T20:03:35.379Z,79.97
2023-04-19T20:06:35.556Z,81.65
2023-04-19T20:08:51.387Z,82.17
2023-04-19T20:11:18.065Z,82.84
2023-04-19T20:13:45.829Z,83.95
2023-04-19T20:16:12.586Z,84.58
2023-04-19T20:18:39.232Z,85.13
2023-04-19T20:21:05.787Z,86.04
2023-04-19T20:23:32.347Z,84.90
2023-04-19T20:26:01.152Z,85.35
2023-04-19T20:28:27.775Z,86.28
2023-04-19T20:30:54.297Z,86.35
2023-04-19T20:33:21.049Z,86.72
2023-04-19T20:35:48.170Z,86.75
2023-04-19T20:38:15.549Z,87.31
2023-04-19T20:40:44.095Z,87.89
2023-04-19T20:43:12.235Z,88.03
2023-04-19T20:45:38.838Z,87.20
2023-04-19T20:48:06.901Z,87.41
2023-04-19T20:50:33.469Z,88.92
2023-04-19T20:53:00.147Z,89.40
2023-04-19T20:55:26.857Z,90.71
2023-04-19T20:57:53.442Z,91.05
2023-04-19T21:00:20.378Z,91.67
2023-04-19T21:02:47.207Z,92.41
2023-04-19T21:05:13.887Z,93.56
2023-04-19T21:07:40.466Z,94.00
2023-04-19T21:10:07.374Z,94.61
2023-04-19T21:12:34.454Z,94.49
2023-04-19T21:15:01.231Z,94.41
2023-04-19T21:17:27.850Z,94.85
2023-04-19T21:19:54.446Z,95.07
2023-04-19T21:22:21.154Z,95.12
2023-04-19T21:24:47.821Z,94.90
2023-04-19T21:27:14.385Z,94.88
2023-04-19T21:29:40.917Z,93.86
2023-04-19T21:32:07.494Z,94.01
2023-04-19T21:34:34.203Z,94.06
2023-04-19T21:37:00.804Z,94.59
2023-04-19T21:39:27.426Z,93.77
2023-04-19T21:41:54.068Z,93.70
2023-04-19T21:44:22.453Z,94.58
2023-04-19T21:46:49.038Z,94.59
2023-04-19T21:49:16.185Z,94.77
2023-04-19T21:51:42.943Z,94.43
2023-04-19T21:54:09.610Z,93.47
2023-04-19T21:56:37.169Z,93.24
2023-04-19T21:59:03.678Z,93.43
2023-04-19T22:01:30.268Z,91.88
2023-04-19T22:03:57.165Z,92.14
2023-04-19T22:06:24.031Z,92.30
2023-04-19T22:08:50.688Z,92.13
2023-04-19T22:11:17.817Z,91.24
2023-04-19T22:13:44.375Z,91.23
2023-04-19T22:16:10.995Z,91.07
2023-04-19T22:18:38.242Z,90.77
2023-04-19T22:21:04.837Z,90.63
2023-04-19T22:23:31.366Z,90.87
2023-04-19T22:25:58.067Z,89.67
2023-04-19T22:28:24.574Z,89.15
2023-04-19T22:30:51.266Z,89.18
2023-04-19T22:33:18.520Z,89.62
2023-04-19T22:35:45.222Z,88.96
2023-04-19T22:38:11.824Z,89.71
2023-04-19T22:40:38.391Z,90.35
2023-04-19T22:43:04.906Z,90.48
2023-04-19T22:45:31.559Z,90.58
2023-04-19T22:47:58.198Z,89.98
2023-04-19T22:50:24.765Z,91.00
2023-04-19T22:52:51.354Z,91.48
2023-04-19T22:55:17.921Z,90.87
2023-04-19T22:57:44.586Z,91.12
2023-04-19T23:00:11.761Z,90.92
2023-04-19T23:02:39.012Z,90.50
2023-04-19T23:05:06.237Z,90.74
2023-04-19T23:07:33.233Z,90.95
2023-04-19T23:09:59.802Z,91.97
2023-04-19T23:12:26.378Z,92.03
2023-04-19T23:14:52.937Z,92.27
2023-04-19T23:17:19.983Z,91.85
2023-04-19T23:19:49.096Z,91.80
2023-04-19T23:22:16.473Z,91.71
2023-04-19T23:24:43.075Z,92.45
2023-04-19T23:27:09.666Z,91.86
2023-04-19T23:29:36.657Z,91.44
2023-04-19T23:32:03.294Z,90.97
2023-04-19T23:34:29.959Z,91.40
2023-04-19T23:36:56.891Z,91.66
2023-04-19T23:39:23.457Z,91.15
2023-04-19T23:41:50.014Z,90.29
2023-04-19T23:44:16.627Z,90.43
2023-04-19T23:46:43.199Z,90.17
2023-04-19T23:49:09.775Z,90.47
2023-04-19T23:51:36.466Z,90.83
2023-04-19T23:54:03.179Z,90.95
2023-04-19T23:56:29.796Z,90.93
2023-04-19T23:58:56.443Z,90.71
